sensor_id;sensor_type;location;lat;lon;timestamp;P1;durP1;ratioP1;P2;durP2;ratioP2
63801;SDS011;49949;43.060;25.624;2022-08-19T00:02:05;15.25;;;10.30;;
63801;SDS011;49949;43.060;25.624;2022-08-19T00:04:32;18.92;;;10.18;;
63801;SDS011;49949;43.060;25.624;2022-08-19T00:07:01;13.63;;;9.82;;
63801;SDS011;49949;43.060;25.624;2022-08-19T00:09:28;15.52;;;9.55;;
63801;SDS011;49949;43.060;25.624;2022-08-19T00:11:54;14.40;;;9.80;;
63801;SDS011;49949;43.060;25.624;2022-08-19T00:14:22;12.98;;;9.23;;
63801;SDS011;49949;43.060;25.624;2022-08-19T00:16:48;19.75;;;10.27;;
63801;SDS011;49949;43.060;25.624;2022-08-19T00:19:16;15.32;;;10.18;;
63801;SDS011;49949;43.060;25.624;2022-08-19T00:21:42;16.25;;;10.07;;
63801;SDS011;49949;43.060;25.624;2022-08-19T00:24:09;15.15;;;9.57;;
63801;SDS011;49949;43.060;25.624;2022-08-19T00:26:36;22.88;;;10.68;;
63801;SDS011;49949;43.060;25.624;2022-08-19T00:29:03;21.20;;;10.80;;
63801;SDS011;49949;43.060;25.624;2022-08-19T00:31:30;15.30;;;9.90;;
63801;SDS011;49949;43.060;25.624;2022-08-19T00:33:56;17.80;;;10.07;;
63801;SDS011;49949;43.060;25.624;2022-08-19T00:36:22;18.42;;;10.65;;
63801;SDS011;49949;43.060;25.624;2022-08-19T00:38:47;15.13;;;11.20;;
63801;SDS011;49949;43.060;25.624;2022-08-19T00:41:15;17.10;;;10.85;;
63801;SDS011;49949;43.060;25.624;2022-08-19T00:43:43;17.13;;;10.68;;
63801;SDS011;49949;43.060;25.624;2022-08-19T00:46:21;13.90;;;9.57;;
63801;SDS011;49949;43.060;25.624;2022-08-19T00:48:46;13.88;;;10.10;;
63801;SDS011;49949;43.060;25.624;2022-08-19T00:51:12;17.00;;;10.18;;
63801;SDS011;49949;43.060;25.624;2022-08-19T00:53:38;12.25;;;9.18;;
63801;SDS011;49949;43.060;25.624;2022-08-19T00:56:04;16.33;;;11.95;;
63801;SDS011;49949;43.060;25.624;2022-08-19T00:58:32;15.20;;;10.05;;
63801;SDS011;49949;43.060;25.624;2022-08-19T01:01:00;13.43;;;9.98;;
63801;SDS011;49949;43.060;25.624;2022-08-19T01:03:28;16.73;;;10.10;;
63801;SDS011;49949;43.060;25.624;2022-08-19T01:05:54;11.30;;;10.10;;
63801;SDS011;49949;43.060;25.624;2022-08-19T01:08:20;15.82;;;9.88;;
63801;SDS011;49949;43.060;25.624;2022-08-19T01:10:52;14.77;;;10.73;;
63801;SDS011;49949;43.060;25.624;2022-08-19T01:13:20;16.88;;;10.70;;
63801;SDS011;49949;43.060;25.624;2022-08-19T01:15:50;15.40;;;11.15;;
63801;SDS011;49949;43.060;25.624;2022-08-19T01:18:21;15.45;;;11.27;;
63801;SDS011;49949;43.060;25.624;2022-08-19T01:20:47;16.92;;;11.57;;
63801;SDS011;49949;43.060;25.624;2022-08-19T01:23:13;14.55;;;10.52;;
63801;SDS011;49949;43.060;25.624;2022-08-19T01:28:14;14.25;;;11.05;;
63801;SDS011;49949;43.060;25.624;2022-08-19T01:30:44;21.15;;;11.88;;
63801;SDS011;49949;43.060;25.624;2022-08-19T01:33:11;18.30;;;12.23;;
63801;SDS011;49949;43.060;25.624;2022-08-19T01:35:37;18.77;;;12.38;;
63801;SDS011;49949;43.060;25.624;2022-08-19T01:38:04;15.18;;;12.32;;
63801;SDS011;49949;43.060;25.624;2022-08-19T01:40:33;14.88;;;11.55;;
63801;SDS011;49949;43.060;25.624;2022-08-19T01:43:00;13.95;;;12.35;;
63801;SDS011;49949;43.060;25.624;2022-08-19T01:45:28;15.32;;;12.15;;
63801;SDS011;49949;43.060;25.624;2022-08-19T01:47:55;17.75;;;11.85;;
63801;SDS011;49949;43.060;25.624;2022-08-19T01:50:21;15.98;;;11.60;;
63801;SDS011;49949;43.060;25.624;2022-08-19T01:52:47;26.30;;;13.82;;
63801;SDS011;49949;43.060;25.624;2022-08-19T01:55:14;24.48;;;12.20;;
63801;SDS011;49949;43.060;25.624;2022-08-19T01:57:44;18.00;;;11.68;;
63801;SDS011;49949;43.060;25.624;2022-08-19T02:00:16;18.77;;;13.05;;
63801;SDS011;49949;43.060;25.624;2022-08-19T02:02:44;16.02;;;12.68;;
63801;SDS011;49949;43.060;25.624;2022-08-19T02:05:10;17.77;;;12.93;;
63801;SDS011;49949;43.060;25.624;2022-08-19T02:07:37;19.88;;;12.13;;
63801;SDS011;49949;43.060;25.624;2022-08-19T02:10:05;21.70;;;15.50;;
63801;SDS011;49949;43.060;25.624;2022-08-19T02:12:33;15.35;;;11.82;;
63801;SDS011;49949;43.060;25.624;2022-08-19T02:14:59;30.02;;;15.45;;
63801;SDS011;49949;43.060;25.624;2022-08-19T02:17:26;25.42;;;14.55;;
63801;SDS011;49949;43.060;25.624;2022-08-19T02:19:53;17.77;;;12.50;;
63801;SDS011;49949;43.060;25.624;2022-08-19T02:22:20;21.15;;;13.32;;
63801;SDS011;49949;43.060;25.624;2022-08-19T02:24:46;22.38;;;12.85;;
63801;SDS011;49949;43.060;25.624;2022-08-19T02:27:13;25.00;;;12.80;;
63801;SDS011;49949;43.060;25.624;2022-08-19T02:29:39;20.27;;;12.70;;
63801;SDS011;49949;43.060;25.624;2022-08-19T02:32:04;24.30;;;12.38;;
63801;SDS011;49949;43.060;25.624;2022-08-19T02:34:30;24.27;;;11.25;;
63801;SDS011;49949;43.060;25.624;2022-08-19T02:36:56;21.27;;;12.23;;
63801;SDS011;49949;43.060;25.624;2022-08-19T02:39:22;18.02;;;11.35;;
63801;SDS011;49949;43.060;25.624;2022-08-19T02:41:47;15.00;;;11.70;;
63801;SDS011;49949;43.060;25.624;2022-08-19T02:44:14;23.05;;;11.35;;
63801;SDS011;49949;43.060;25.624;2022-08-19T02:46:40;17.10;;;11.73;;
63801;SDS011;49949;43.060;25.624;2022-08-19T02:49:06;13.25;;;11.38;;
63801;SDS011;49949;43.060;25.624;2022-08-19T02:51:37;20.33;;;12.00;;
63801;SDS011;49949;43.060;25.624;2022-08-19T02:54:05;24.35;;;11.15;;
63801;SDS011;49949;43.060;25.624;2022-08-19T02:56:34;26.15;;;11.57;;
63801;SDS011;49949;43.060;25.624;2022-08-19T02:59:02;18.05;;;10.98;;
63801;SDS011;49949;43.060;25.624;2022-08-19T03:01:31;20.83;;;14.35;;
63801;SDS011;49949;43.060;25.624;2022-08-19T03:03:59;24.52;;;13.05;;
63801;SDS011;49949;43.060;25.624;2022-08-19T03:06:27;16.80;;;11.82;;
63801;SDS011;49949;43.060;25.624;2022-08-19T03:08:53;18.08;;;11.65;;
63801;SDS011;49949;43.060;25.624;2022-08-19T03:11:24;17.73;;;11.80;;
63801;SDS011;49949;43.060;25.624;2022-08-19T03:13:52;25.65;;;11.75;;
63801;SDS011;49949;43.060;25.624;2022-08-19T03:16:19;14.60;;;11.30;;
63801;SDS011;49949;43.060;25.624;2022-08-19T03:18:46;15.43;;;12.10;;
63801;SDS011;49949;43.060;25.624;2022-08-19T03:21:16;21.95;;;12.18;;
63801;SDS011;49949;43.060;25.624;2022-08-19T03:23:46;16.30;;;11.38;;
63801;SDS011;49949;43.060;25.624;2022-08-19T03:26:12;23.50;;;12.52;;
63801;SDS011;49949;43.060;25.624;2022-08-19T03:28:39;20.35;;;12.40;;
63801;SDS011;49949;43.060;25.624;2022-08-19T03:31:07;20.70;;;14.27;;
63801;SDS011;49949;43.060;25.624;2022-08-19T03:33:36;75.50;;;17.35;;
63801;SDS011;49949;43.060;25.624;2022-08-19T03:38:35;30.73;;;12.13;;
63801;SDS011;49949;43.060;25.624;2022-08-19T03:41:03;19.67;;;12.70;;
63801;SDS011;49949;43.060;25.624;2022-08-19T03:43:31;22.75;;;12.27;;
63801;SDS011;49949;43.060;25.624;2022-08-19T03:46:03;16.27;;;11.88;;
63801;SDS011;49949;43.060;25.624;2022-08-19T03:48:31;16.13;;;11.88;;
63801;SDS011;49949;43.060;25.624;2022-08-19T03:50:57;29.98;;;12.77;;
63801;SDS011;49949;43.060;25.624;2022-08-19T03:53:24;17.75;;;12.77;;
63801;SDS011;49949;43.060;25.624;2022-08-19T03:55:51;23.58;;;14.23;;
63801;SDS011;49949;43.060;25.624;2022-08-19T03:58:18;19.25;;;13.00;;
63801;SDS011;49949;43.060;25.624;2022-08-19T04:00:44;20.58;;;13.35;;
63801;SDS011;49949;43.060;25.624;2022-08-19T04:03:10;18.10;;;12.95;;
63801;SDS011;49949;43.060;25.624;2022-08-19T04:05:35;19.58;;;13.30;;
63801;SDS011;49949;43.060;25.624;2022-08-19T04:08:03;36.03;;;13.88;;
63801;SDS011;49949;43.060;25.624;2022-08-19T04:10:31;23.10;;;14.73;;
63801;SDS011;49949;43.060;25.624;2022-08-19T04:13:01;27.67;;;14.43;;
63801;SDS011;49949;43.060;25.624;2022-08-19T04:15:29;23.58;;;14.65;;
63801;SDS011;49949;43.060;25.624;2022-08-19T04:17:58;29.27;;;15.52;;
63801;SDS011;49949;43.060;25.624;2022-08-19T04:20:24;24.50;;;13.32;;
63801;SDS011;49949;43.060;25.624;2022-08-19T04:22:49;19.58;;;12.65;;
63801;SDS011;49949;43.060;25.624;2022-08-19T04:25:15;25.90;;;12.90;;
63801;SDS011;49949;43.060;25.624;2022-08-19T04:27:41;22.25;;;13.57;;
63801;SDS011;49949;43.060;25.624;2022-08-19T04:30:11;26.35;;;12.68;;
63801;SDS011;49949;43.060;25.624;2022-08-19T04:32:38;28.55;;;13.15;;
63801;SDS011;49949;43.060;25.624;2022-08-19T04:35:04;23.58;;;13.65;;
63801;SDS011;49949;43.060;25.624;2022-08-19T04:37:30;334.60;;;26.05;;
63801;SDS011;49949;43.060;25.624;2022-08-19T04:39:58;36.35;;;15.45;;
63801;SDS011;49949;43.060;25.624;2022-08-19T04:42:43;25.77;;;14.32;;
63801;SDS011;49949;43.060;25.624;2022-08-19T04:45:11;34.45;;;15.70;;
63801;SDS011;49949;43.060;25.624;2022-08-19T04:47:39;31.20;;;14.82;;
63801;SDS011;49949;43.060;25.624;2022-08-19T04:50:07;23.15;;;13.80;;
63801;SDS011;49949;43.060;25.624;2022-08-19T04:52:36;34.53;;;15.85;;
63801;SDS011;49949;43.060;25.624;2022-08-19T04:55:04;27.17;;;15.32;;
63801;SDS011;49949;43.060;25.624;2022-08-19T04:57:31;26.15;;;16.77;;
63801;SDS011;49949;43.060;25.624;2022-08-19T04:59:57;49.47;;;17.52;;
63801;SDS011;49949;43.060;25.624;2022-08-19T05:02:22;54.97;;;23.00;;
63801;SDS011;49949;43.060;25.624;2022-08-19T05:04:49;61.78;;;26.13;;
63801;SDS011;49949;43.060;25.624;2022-08-19T05:07:16;53.40;;;26.88;;
63801;SDS011;49949;43.060;25.624;2022-08-19T05:09:42;62.03;;;24.50;;
63801;SDS011;49949;43.060;25.624;2022-08-19T05:12:07;68.30;;;23.90;;
63801;SDS011;49949;43.060;25.624;2022-08-19T05:14:33;63.35;;;19.65;;
63801;SDS011;49949;43.060;25.624;2022-08-19T05:17:01;54.10;;;17.50;;
63801;SDS011;49949;43.060;25.624;2022-08-19T05:19:27;47.33;;;16.92;;
63801;SDS011;49949;43.060;25.624;2022-08-19T05:22:11;45.90;;;17.75;;
63801;SDS011;49949;43.060;25.624;2022-08-19T05:24:55;44.30;;;17.67;;
63801;SDS011;49949;43.060;25.624;2022-08-19T05:27:21;36.25;;;18.48;;
63801;SDS011;49949;43.060;25.624;2022-08-19T05:29:46;55.67;;;22.08;;
63801;SDS011;49949;43.060;25.624;2022-08-19T05:32:12;51.90;;;20.20;;
63801;SDS011;49949;43.060;25.624;2022-08-19T05:34:38;44.45;;;20.88;;
63801;SDS011;49949;43.060;25.624;2022-08-19T05:37:04;48.20;;;20.15;;
63801;SDS011;49949;43.060;25.624;2022-08-19T05:39:31;42.10;;;21.05;;
63801;SDS011;49949;43.060;25.624;2022-08-19T05:42:00;46.67;;;22.20;;
63801;SDS011;49949;43.060;25.624;2022-08-19T05:44:28;39.60;;;21.30;;
63801;SDS011;49949;43.060;25.624;2022-08-19T05:46:57;46.45;;;25.65;;
63801;SDS011;49949;43.060;25.624;2022-08-19T05:49:24;44.25;;;22.85;;
63801;SDS011;49949;43.060;25.624;2022-08-19T05:51:52;41.08;;;23.42;;
63801;SDS011;49949;43.060;25.624;2022-08-19T05:54:19;30.45;;;19.75;;
63801;SDS011;49949;43.060;25.624;2022-08-19T05:56:46;39.15;;;20.10;;
63801;SDS011;49949;43.060;25.624;2022-08-19T05:59:13;33.72;;;18.98;;
63801;SDS011;49949;43.060;25.624;2022-08-19T06:01:41;48.30;;;18.85;;
63801;SDS011;49949;43.060;25.624;2022-08-19T06:04:09;146.68;;;22.27;;
63801;SDS011;49949;43.060;25.624;2022-08-19T06:06:35;37.33;;;18.80;;
63801;SDS011;49949;43.060;25.624;2022-08-19T06:09:02;34.22;;;18.23;;
63801;SDS011;49949;43.060;25.624;2022-08-19T06:14:23;33.78;;;17.67;;
63801;SDS011;49949;43.060;25.624;2022-08-19T06:16:50;39.50;;;18.05;;
63801;SDS011;49949;43.060;25.624;2022-08-19T06:19:18;35.58;;;16.90;;
63801;SDS011;49949;43.060;25.624;2022-08-19T06:21:47;41.97;;;18.02;;
63801;SDS011;49949;43.060;25.624;2022-08-19T06:24:16;38.80;;;17.77;;
63801;SDS011;49949;43.060;25.624;2022-08-19T06:26:45;33.08;;;15.77;;
63801;SDS011;49949;43.060;25.624;2022-08-19T06:29:13;36.75;;;17.45;;
63801;SDS011;49949;43.060;25.624;2022-08-19T06:31:42;34.60;;;16.75;;
63801;SDS011;49949;43.060;25.624;2022-08-19T06:34:09;55.80;;;19.50;;
63801;SDS011;49949;43.060;25.624;2022-08-19T06:36:38;41.88;;;17.52;;
63801;SDS011;49949;43.060;25.624;2022-08-19T06:39:17;53.88;;;19.98;;
63801;SDS011;49949;43.060;25.624;2022-08-19T06:41:46;88.28;;;20.02;;
63801;SDS011;49949;43.060;25.624;2022-08-19T06:44:14;133.80;;;19.95;;
63801;SDS011;49949;43.060;25.624;2022-08-19T06:46:41;54.88;;;17.27;;
63801;SDS011;49949;43.060;25.624;2022-08-19T06:49:07;25.45;;;14.07;;
63801;SDS011;49949;43.060;25.624;2022-08-19T06:51:39;22.70;;;12.25;;
63801;SDS011;49949;43.060;25.624;2022-08-19T06:54:06;26.58;;;10.82;;
63801;SDS011;49949;43.060;25.624;2022-08-19T06:56:32;25.42;;;11.65;;
63801;SDS011;49949;43.060;25.624;2022-08-19T06:59:03;37.83;;;11.15;;
63801;SDS011;49949;43.060;25.624;2022-08-19T07:01:33;22.58;;;10.77;;
63801;SDS011;49949;43.060;25.624;2022-08-19T07:04:05;24.25;;;10.25;;
63801;SDS011;49949;43.060;25.624;2022-08-19T07:06:32;79.07;;;11.02;;
63801;SDS011;49949;43.060;25.624;2022-08-19T07:08:58;19.88;;;8.75;;
63801;SDS011;49949;43.060;25.624;2022-08-19T07:11:24;12.70;;;6.78;;
63801;SDS011;49949;43.060;25.624;2022-08-19T07:13:50;9.38;;;6.00;;
63801;SDS011;49949;43.060;25.624;2022-08-19T07:16:17;14.18;;;7.30;;
63801;SDS011;49949;43.060;25.624;2022-08-19T07:18:45;11.43;;;5.65;;
63801;SDS011;49949;43.060;25.624;2022-08-19T07:21:22;10.70;;;6.30;;
63801;SDS011;49949;43.060;25.624;2022-08-19T07:23:53;9.57;;;6.13;;
63801;SDS011;49949;43.060;25.624;2022-08-19T07:26:31;16.83;;;6.70;;
63801;SDS011;49949;43.060;25.624;2022-08-19T07:28:58;13.55;;;5.90;;
63801;SDS011;49949;43.060;25.624;2022-08-19T07:31:25;8.63;;;5.28;;
63801;SDS011;49949;43.060;25.624;2022-08-19T07:33:53;10.07;;;6.05;;
63801;SDS011;49949;43.060;25.624;2022-08-19T07:36:27;10.57;;;6.10;;
63801;SDS011;49949;43.060;25.624;2022-08-19T07:38:57;12.85;;;5.60;;
63801;SDS011;49949;43.060;25.624;2022-08-19T07:41:25;6.32;;;5.15;;
63801;SDS011;49949;43.060;25.624;2022-08-19T07:43:53;11.20;;;5.38;;
63801;SDS011;49949;43.060;25.624;2022-08-19T07:46:19;13.10;;;5.22;;
63801;SDS011;49949;43.060;25.624;2022-08-19T07:48:46;12.35;;;5.30;;
63801;SDS011;49949;43.060;25.624;2022-08-19T07:51:15;11.25;;;5.05;;
63801;SDS011;49949;43.060;25.624;2022-08-19T07:53:43;7.55;;;5.22;;
63801;SDS011;49949;43.060;25.624;2022-08-19T07:56:10;10.95;;;5.10;;
63801;SDS011;49949;43.060;25.624;2022-08-19T07:58:39;8.15;;;5.18;;
63801;SDS011;49949;43.060;25.624;2022-08-19T08:01:07;10.65;;;5.10;;
63801;SDS011;49949;43.060;25.624;2022-08-19T08:03:35;11.43;;;5.30;;
63801;SDS011;49949;43.060;25.624;2022-08-19T08:06:21;10.50;;;5.20;;
63801;SDS011;49949;43.060;25.624;2022-08-19T08:09:05;14.85;;;5.20;;
63801;SDS011;49949;43.060;25.624;2022-08-19T08:11:42;10.25;;;5.15;;
63801;SDS011;49949;43.060;25.624;2022-08-19T08:14:24;8.98;;;4.53;;
63801;SDS011;49949;43.060;25.624;2022-08-19T08:17:02;11.48;;;5.13;;
63801;SDS011;49949;43.060;25.624;2022-08-19T08:19:29;10.10;;;4.95;;
63801;SDS011;49949;43.060;25.624;2022-08-19T08:21:57;7.85;;;4.88;;
63801;SDS011;49949;43.060;25.624;2022-08-19T08:24:28;12.00;;;5.13;;
63801;SDS011;49949;43.060;25.624;2022-08-19T08:26:56;9.70;;;5.80;;
63801;SDS011;49949;43.060;25.624;2022-08-19T08:29:24;12.80;;;5.30;;
63801;SDS011;49949;43.060;25.624;2022-08-19T08:31:50;18.15;;;5.50;;
63801;SDS011;49949;43.060;25.624;2022-08-19T08:34:17;23.83;;;5.82;;
63801;SDS011;49949;43.060;25.624;2022-08-19T08:36:43;8.85;;;4.68;;
63801;SDS011;49949;43.060;25.624;2022-08-19T08:39:17;7.57;;;5.00;;
63801;SDS011;49949;43.060;25.624;2022-08-19T08:44:26;13.73;;;4.88;;
63801;SDS011;49949;43.060;25.624;2022-08-19T08:47:05;9.10;;;5.43;;
63801;SDS011;49949;43.060;25.624;2022-08-19T08:55:12;10.52;;;5.32;;
63801;SDS011;49949;43.060;25.624;2022-08-19T09:00:17;8.45;;;5.03;;
63801;SDS011;49949;43.060;25.624;2022-08-19T09:02:50;18.67;;;5.15;;
63801;SDS011;49949;43.060;25.624;2022-08-19T09:05:16;8.32;;;4.90;;
63801;SDS011;49949;43.060;25.624;2022-08-19T09:07:54;6.47;;;5.18;;
63801;SDS011;49949;43.060;25.624;2022-08-19T09:10:43;9.45;;;5.50;;
63801;SDS011;49949;43.060;25.624;2022-08-19T09:16:02;4.82;;;4.20;;
63801;SDS011;49949;43.060;25.624;2022-08-19T09:18:43;9.07;;;4.80;;
63801;SDS011;49949;43.060;25.624;2022-08-19T09:21:17;6.00;;;4.32;;
63801;SDS011;49949;43.060;25.624;2022-08-19T09:23:42;8.88;;;4.60;;
63801;SDS011;49949;43.060;25.624;2022-08-19T09:26:09;10.27;;;4.72;;
63801;SDS011;49949;43.060;25.624;2022-08-19T09:28:40;9.35;;;4.60;;
63801;SDS011;49949;43.060;25.624;2022-08-19T09:31:11;7.93;;;5.38;;
63801;SDS011;49949;43.060;25.624;2022-08-19T09:33:41;7.60;;;4.45;;
63801;SDS011;49949;43.060;25.624;2022-08-19T09:36:09;7.20;;;4.85;;
63801;SDS011;49949;43.060;25.624;2022-08-19T09:38:37;7.85;;;4.90;;
63801;SDS011;49949;43.060;25.624;2022-08-19T09:41:09;11.82;;;4.68;;
63801;SDS011;49949;43.060;25.624;2022-08-19T09:43:39;8.70;;;4.50;;
63801;SDS011;49949;43.060;25.624;2022-08-19T09:46:06;5.05;;;4.55;;
63801;SDS011;49949;43.060;25.624;2022-08-19T09:48:34;8.43;;;4.85;;
63801;SDS011;49949;43.060;25.624;2022-08-19T09:51:11;10.65;;;4.75;;
63801;SDS011;49949;43.060;25.624;2022-08-19T09:53:41;6.13;;;4.45;;
63801;SDS011;49949;43.060;25.624;2022-08-19T09:56:09;11.70;;;4.65;;
63801;SDS011;49949;43.060;25.624;2022-08-19T09:58:35;5.80;;;4.47;;
63801;SDS011;49949;43.060;25.624;2022-08-19T10:01:02;14.70;;;4.95;;
63801;SDS011;49949;43.060;25.624;2022-08-19T10:03:30;9.10;;;4.25;;
63801;SDS011;49949;43.060;25.624;2022-08-19T10:05:58;30.23;;;4.70;;
63801;SDS011;49949;43.060;25.624;2022-08-19T10:08:28;8.23;;;4.30;;
63801;SDS011;49949;43.060;25.624;2022-08-19T10:10:56;8.73;;;4.63;;
63801;SDS011;49949;43.060;25.624;2022-08-19T10:13:23;11.00;;;4.47;;
63801;SDS011;49949;43.060;25.624;2022-08-19T10:15:54;10.15;;;4.50;;
63801;SDS011;49949;43.060;25.624;2022-08-19T10:18:22;5.80;;;4.25;;
63801;SDS011;49949;43.060;25.624;2022-08-19T10:20:49;5.43;;;4.07;;
63801;SDS011;49949;43.060;25.624;2022-08-19T10:23:17;6.10;;;4.30;;
63801;SDS011;49949;43.060;25.624;2022-08-19T10:25:44;6.82;;;4.68;;
63801;SDS011;49949;43.060;25.624;2022-08-19T10:28:10;6.63;;;4.40;;
63801;SDS011;49949;43.060;25.624;2022-08-19T10:30:37;12.48;;;4.40;;
63801;SDS011;49949;43.060;25.624;2022-08-19T10:33:06;8.32;;;4.97;;
63801;SDS011;49949;43.060;25.624;2022-08-19T10:35:32;11.00;;;4.18;;
63801;SDS011;49949;43.060;25.624;2022-08-19T10:37:59;8.43;;;4.35;;
63801;SDS011;49949;43.060;25.624;2022-08-19T10:40:26;9.98;;;4.00;;
63801;SDS011;49949;43.060;25.624;2022-08-19T10:42:53;6.55;;;4.50;;
63801;SDS011;49949;43.060;25.624;2022-08-19T10:45:20;17.67;;;4.88;;
63801;SDS011;49949;43.060;25.624;2022-08-19T10:47:52;7.83;;;4.83;;
63801;SDS011;49949;43.060;25.624;2022-08-19T10:50:18;16.00;;;5.30;;
63801;SDS011;49949;43.060;25.624;2022-08-19T10:53:06;8.63;;;4.50;;
63801;SDS011;49949;43.060;25.624;2022-08-19T10:55:36;21.67;;;4.78;;
63801;SDS011;49949;43.060;25.624;2022-08-19T10:58:21;5.15;;;4.57;;
63801;SDS011;49949;43.060;25.624;2022-08-19T11:00:59;6.65;;;4.75;;
63801;SDS011;49949;43.060;25.624;2022-08-19T11:03:25;7.93;;;4.35;;
63801;SDS011;49949;43.060;25.624;2022-08-19T11:06:02;7.50;;;4.00;;
63801;SDS011;49949;43.060;25.624;2022-08-19T11:08:30;8.48;;;4.05;;
63801;SDS011;49949;43.060;25.624;2022-08-19T11:10:58;10.75;;;4.18;;
63801;SDS011;49949;43.060;25.624;2022-08-19T11:13:29;8.10;;;4.03;;
63801;SDS011;49949;43.060;25.624;2022-08-19T11:15:59;8.48;;;3.90;;
63801;SDS011;49949;43.060;25.624;2022-08-19T11:18:27;8.45;;;3.80;;
63801;SDS011;49949;43.060;25.624;2022-08-19T11:20:53;6.22;;;3.67;;
63801;SDS011;49949;43.060;25.624;2022-08-19T11:23:19;6.28;;;3.97;;
63801;SDS011;49949;43.060;25.624;2022-08-19T11:25:45;5.43;;;4.28;;
63801;SDS011;49949;43.060;25.624;2022-08-19T11:28:11;6.22;;;3.65;;
63801;SDS011;49949;43.060;25.624;2022-08-19T11:30:38;6.95;;;4.03;;
63801;SDS011;49949;43.060;25.624;2022-08-19T11:33:04;9.65;;;4.15;;
63801;SDS011;49949;43.060;25.624;2022-08-19T11:35:30;6.20;;;4.07;;
63801;SDS011;49949;43.060;25.624;2022-08-19T11:37:56;21.83;;;5.40;;
63801;SDS011;49949;43.060;25.624;2022-08-19T11:40:26;10.43;;;3.97;;
63801;SDS011;49949;43.060;25.624;2022-08-19T11:42:52;5.32;;;3.47;;
63801;SDS011;49949;43.060;25.624;2022-08-19T11:45:21;8.93;;;3.55;;
63801;SDS011;49949;43.060;25.624;2022-08-19T11:47:50;5.22;;;3.85;;
63801;SDS011;49949;43.060;25.624;2022-08-19T11:50:16;6.03;;;3.65;;
63801;SDS011;49949;43.060;25.624;2022-08-19T11:52:42;9.23;;;2.65;;
63801;SDS011;49949;43.060;25.624;2022-08-19T11:55:10;5.57;;;4.05;;
63801;SDS011;49949;43.060;25.624;2022-08-19T11:57:36;5.88;;;3.88;;
63801;SDS011;49949;43.060;25.624;2022-08-19T12:00:03;6.53;;;4.10;;
63801;SDS011;49949;43.060;25.624;2022-08-19T12:02:31;8.15;;;3.97;;
63801;SDS011;49949;43.060;25.624;2022-08-19T12:04:57;7.22;;;3.78;;
63801;SDS011;49949;43.060;25.624;2022-08-19T12:07:24;7.38;;;4.10;;
63801;SDS011;49949;43.060;25.624;2022-08-19T12:09:50;9.93;;;3.70;;
63801;SDS011;49949;43.060;25.624;2022-08-19T12:12:16;5.93;;;3.67;;
63801;SDS011;49949;43.060;25.624;2022-08-19T12:14:41;5.80;;;3.58;;
63801;SDS011;49949;43.060;25.624;2022-08-19T12:17:07;10.63;;;4.18;;
63801;SDS011;49949;43.060;25.624;2022-08-19T12:19:35;7.43;;;4.35;;
63801;SDS011;49949;43.060;25.624;2022-08-19T12:22:01;5.22;;;4.20;;
63801;SDS011;49949;43.060;25.624;2022-08-19T12:24:29;73.05;;;6.78;;
63801;SDS011;49949;43.060;25.624;2022-08-19T12:26:56;54.10;;;5.68;;
63801;SDS011;49949;43.060;25.624;2022-08-19T12:29:23;7.28;;;3.95;;
63801;SDS011;49949;43.060;25.624;2022-08-19T12:31:54;10.38;;;3.90;;
63801;SDS011;49949;43.060;25.624;2022-08-19T12:34:26;22.10;;;4.57;;
63801;SDS011;49949;43.060;25.624;2022-08-19T12:36:55;14.23;;;3.90;;
63801;SDS011;49949;43.060;25.624;2022-08-19T12:39:22;9.20;;;3.33;;
63801;SDS011;49949;43.060;25.624;2022-08-19T12:41:48;11.13;;;4.00;;
63801;SDS011;49949;43.060;25.624;2022-08-19T12:44:14;6.55;;;3.92;;
63801;SDS011;49949;43.060;25.624;2022-08-19T12:46:40;5.57;;;3.47;;
63801;SDS011;49949;43.060;25.624;2022-08-19T12:49:06;8.82;;;4.40;;
63801;SDS011;49949;43.060;25.624;2022-08-19T12:51:31;5.20;;;3.75;;
63801;SDS011;49949;43.060;25.624;2022-08-19T12:53:57;9.90;;;3.97;;
63801;SDS011;49949;43.060;25.624;2022-08-19T12:56:23;4.82;;;3.63;;
63801;SDS011;49949;43.060;25.624;2022-08-19T12:58:48;7.57;;;3.55;;
63801;SDS011;49949;43.060;25.624;2022-08-19T13:01:15;4.25;;;3.85;;
63801;SDS011;49949;43.060;25.624;2022-08-19T13:03:41;6.65;;;3.83;;
63801;SDS011;49949;43.060;25.624;2022-08-19T13:06:09;4.43;;;3.33;;
63801;SDS011;49949;43.060;25.624;2022-08-19T13:08:35;19.88;;;4.05;;
63801;SDS011;49949;43.060;25.624;2022-08-19T13:11:11;10.00;;;3.95;;
63801;SDS011;49949;43.060;25.624;2022-08-19T13:13:43;10.05;;;3.72;;
63801;SDS011;49949;43.060;25.624;2022-08-19T13:16:11;5.05;;;3.28;;
63801;SDS011;49949;43.060;25.624;2022-08-19T13:18:38;5.78;;;3.40;;
63801;SDS011;49949;43.060;25.624;2022-08-19T13:21:05;8.55;;;3.63;;
63801;SDS011;49949;43.060;25.624;2022-08-19T13:23:33;6.18;;;3.50;;
63801;SDS011;49949;43.060;25.624;2022-08-19T13:26:01;15.80;;;4.03;;
63801;SDS011;49949;43.060;25.624;2022-08-19T13:28:30;6.22;;;3.70;;
63801;SDS011;49949;43.060;25.624;2022-08-19T13:31:16;14.40;;;4.32;;
63801;SDS011;49949;43.060;25.624;2022-08-19T13:34:02;6.05;;;3.53;;
63801;SDS011;49949;43.060;25.624;2022-08-19T13:36:28;8.63;;;3.78;;
63801;SDS011;49949;43.060;25.624;2022-08-19T13:38:54;4.50;;;3.22;;
63801;SDS011;49949;43.060;25.624;2022-08-19T13:41:21;6.70;;;3.60;;
63801;SDS011;49949;43.060;25.624;2022-08-19T13:43:47;4.45;;;4.00;;
63801;SDS011;49949;43.060;25.624;2022-08-19T13:46:14;9.68;;;3.65;;
63801;SDS011;49949;43.060;25.624;2022-08-19T13:48:40;11.45;;;4.30;;
63801;SDS011;49949;43.060;25.624;2022-08-19T13:51:06;9.95;;;4.28;;
63801;SDS011;49949;43.060;25.624;2022-08-19T13:53:39;9.30;;;4.18;;
63801;SDS011;49949;43.060;25.624;2022-08-19T13:56:07;5.32;;;3.42;;
63801;SDS011;49949;43.060;25.624;2022-08-19T13:58:35;9.25;;;4.13;;
63801;SDS011;49949;43.060;25.624;2022-08-19T14:01:02;8.57;;;3.60;;
63801;SDS011;49949;43.060;25.624;2022-08-19T14:03:28;11.15;;;4.43;;
63801;SDS011;49949;43.060;25.624;2022-08-19T14:05:55;8.73;;;3.55;;
63801;SDS011;49949;43.060;25.624;2022-08-19T14:08:21;8.60;;;3.70;;
63801;SDS011;49949;43.060;25.624;2022-08-19T14:10:48;15.52;;;4.07;;
63801;SDS011;49949;43.060;25.624;2022-08-19T14:13:15;6.03;;;3.80;;
63801;SDS011;49949;43.060;25.624;2022-08-19T14:15:43;17.60;;;4.40;;
63801;SDS011;49949;43.060;25.624;2022-08-19T14:18:09;5.70;;;3.80;;
63801;SDS011;49949;43.060;25.624;2022-08-19T14:20:36;8.48;;;3.40;;
63801;SDS011;49949;43.060;25.624;2022-08-19T14:23:02;9.48;;;3.80;;
63801;SDS011;49949;43.060;25.624;2022-08-19T14:25:31;15.63;;;4.10;;
63801;SDS011;49949;43.060;25.624;2022-08-19T14:27:57;8.60;;;3.83;;
63801;SDS011;49949;43.060;25.624;2022-08-19T14:30:27;12.38;;;4.00;;
63801;SDS011;49949;43.060;25.624;2022-08-19T14:32:59;5.78;;;3.53;;
63801;SDS011;49949;43.060;25.624;2022-08-19T14:35:26;7.20;;;3.95;;
63801;SDS011;49949;43.060;25.624;2022-08-19T14:37:53;7.18;;;3.45;;
63801;SDS011;49949;43.060;25.624;2022-08-19T14:40:21;5.50;;;3.58;;
63801;SDS011;49949;43.060;25.624;2022-08-19T14:43:01;10.63;;;3.60;;
63801;SDS011;49949;43.060;25.624;2022-08-19T14:45:32;21.33;;;13.60;;
63801;SDS011;49949;43.060;25.624;2022-08-19T14:48:01;9.15;;;3.95;;
63801;SDS011;49949;43.060;25.624;2022-08-19T14:50:27;9.13;;;3.22;;